createdAt,value
2023-01-07T00:04:18.080Z,1015.57
2023-01-07T00:19:21.959Z,1015.46
2023-01-07T00:34:24.273Z,1015.37
2023-01-07T00:49:26.701Z,1015.50
2023-01-07T01:04:29.173Z,1015.60
2023-01-07T01:19:31.437Z,1015.51
2023-01-07T01:34:34.319Z,1015.58
2023-01-07T01:49:36.627Z,1015.48
2023-01-07T02:04:38.669Z,1015.35
2023-01-07T02:19:40.479Z,1015.30
2023-01-07T02:34:41.162Z,1015.15
2023-01-07T02:49:42.080Z,1015.12
2023-01-07T03:04:44.136Z,1014.85
2023-01-07T03:19:46.595Z,1015.01
2023-01-07T03:34:48.434Z,1015.04
2023-01-07T03:49:50.724Z,1014.88
2023-01-07T04:04:51.416Z,1014.71
2023-01-07T04:19:53.069Z,1014.56
2023-01-07T04:34:55.941Z,1014.57
2023-01-07T04:49:56.938Z,1014.58
2023-01-07T05:04:58.961Z,1014.46
2023-01-07T05:20:00.011Z,1014.37
2023-01-07T05:35:02.442Z,1014.35
2023-01-07T05:50:04.026Z,1014.36
2023-01-07T06:05:05.646Z,1014.12
2023-01-07T06:20:06.095Z,1014.29
2023-01-07T06:35:08.124Z,1014.24
2023-01-07T06:50:08.956Z,1014.23
2023-01-07T07:05:10.938Z,1014.26
2023-01-07T07:20:12.694Z,1014.27
2023-01-07T07:35:14.674Z,1014.37
2023-01-07T07:50:15.168Z,1014.44
2023-01-07T08:05:18.934Z,1014.47
2023-01-07T08:20:19.417Z,1014.39
2023-01-07T08:35:21.426Z,1014.39
2023-01-07T08:50:23.234Z,1014.29
2023-01-07T09:05:25.268Z,1014.37
2023-01-07T09:20:27.541Z,1014.28
2023-01-07T09:35:29.322Z,1014.21
2023-01-07T09:50:32.951Z,1014.11
2023-01-07T10:05:33.463Z,1013.98
2023-01-07T10:20:35.551Z,1013.87
2023-01-07T10:35:39.073Z,1013.65
2023-01-07T10:50:39.568Z,1013.57
2023-01-07T11:05:42.565Z,1013.46
2023-01-07T11:20:43.778Z,1013.24
2023-01-07T11:35:44.361Z,1013.09
2023-01-07T11:50:44.853Z,1012.93
2023-01-07T12:05:47.580Z,1012.81
2023-01-07T12:20:49.963Z,1012.76
2023-01-07T12:35:51.930Z,1012.58
2023-01-07T12:50:53.353Z,1012.48
2023-01-07T13:05:53.721Z,1012.32
2023-01-07T13:20:54.902Z,1012.09
2023-01-07T13:35:56.777Z,1011.95
2023-01-07T13:50:57.842Z,1011.86
2023-01-07T14:05:58.615Z,1011.78
2023-01-07T14:20:59.073Z,1011.61
2023-01-07T14:36:01.067Z,1011.45
2023-01-07T14:51:02.811Z,1011.40
2023-01-07T15:06:05.128Z,1011.34
2023-01-07T15:21:05.297Z,1011.45
2023-01-07T15:36:07.069Z,1011.37
2023-01-07T15:51:07.414Z,1011.37
2023-01-07T16:06:09.340Z,1011.24
2023-01-07T16:21:09.845Z,1011.11
2023-01-07T16:36:11.949Z,1010.96
2023-01-07T16:51:15.478Z,1010.95
2023-01-07T17:06:17.265Z,1010.81
2023-01-07T17:21:19.253Z,1010.55
2023-01-07T17:36:19.468Z,1010.34
2023-01-07T17:51:20.065Z,1010.29
2023-01-07T18:06:22.357Z,1010.17
2023-01-07T18:21:24.903Z,1010.03
2023-01-07T18:36:26.692Z,1009.93
2023-01-07T18:51:28.901Z,1009.71
2023-01-07T19:06:30.720Z,1009.56
2023-01-07T19:21:31.665Z,1009.30
2023-01-07T19:36:33.153Z,1009.10
2023-01-07T19:51:34.967Z,1008.97
2023-01-07T20:06:35.451Z,1008.81
2023-01-07T20:21:36.143Z,1008.66
2023-01-07T20:36:37.912Z,1008.50
2023-01-07T20:51:40.205Z,1008.45
2023-01-07T21:06:41.710Z,1008.22
2023-01-07T21:21:44.094Z,1007.93
2023-01-07T21:36:47.048Z,1007.82
2023-01-07T21:51:53.323Z,1007.78
2023-01-07T22:06:55.401Z,1007.70
2023-01-07T22:21:57.371Z,1007.48
2023-01-07T22:36:59.399Z,1007.26
2023-01-07T22:52:02.361Z,1007.15
2023-01-07T23:07:04.710Z,1007.08
2023-01-07T23:22:07.091Z,1006.99
2023-01-07T23:37:09.536Z,1006.87
2023-01-07T23:52:11.295Z,1006.58
